Time;durP1;ratioP1;P1;durP2;ratioP2;P2;SDS_P1;SDS_P2;PMS_P1;PMS_P2;Temp;Humidity;BMP_temperature;BMP_pressure;BME280_temperature;BME280_humidity;BME280_pressure;Samples;Min_cycle;Max_cycle;Signal;HPM_P1;HPM_P2
2022/01/22 00:00:53;;;;;;;10.83;7.93;;;0.50;99.90;;;;;;5013003;28;20458;-53
2022/01/22 00:03:18;;;;;;;11.97;8.50;;;0.70;99.90;;;;;;5012765;28;20192;-50
2022/01/22 00:05:45;;;;;;;12.03;7.93;;;0.50;99.90;;;;;;5012520;28;20177;-50
2022/01/22 00:08:11;;;;;;;9.53;7.47;;;0.50;99.90;;;;;;5012825;28;20227;-50
2022/01/22 00:10:41;;;;;;;10.33;7.93;;;0.50;99.90;;;;;;5012640;28;20993;-52
2022/01/22 00:14:23;;;;;;;10.10;7.67;;;0.40;99.90;;;;;;5012781;28;20169;-54
2022/01/22 00:15:53;;;;;;;11.27;7.80;;;0.10;99.90;;;;;;5012235;28;20408;-50
2022/01/22 00:18:18;;;;;;;9.40;7.40;;;0.20;99.90;;;;;;5012723;28;20435;-52
2022/01/22 00:20:44;;;;;;;11.23;8.03;;;0.30;99.90;;;;;;5027856;23;20506;-58
2022/01/22 00:23:10;;;;;;;10.53;8.10;;;;;;;;;;5012502;28;20184;-58
2022/01/22 00:25:36;;;;;;;11.77;8.40;;;0.10;99.90;;;;;;5011968;28;20511;-58
2022/01/22 00:28:02;;;;;;;10.27;8.20;;;0.20;99.90;;;;;;5012388;28;20454;-57
2022/01/22 00:30:28;;;;;;;13.30;8.20;;;0.40;99.90;;;;;;5012201;28;21015;-58
2022/01/22 00:32:54;;;;;;;13.13;8.53;;;0.50;99.90;;;;;;5012662;28;20202;-57
2022/01/22 00:35:22;;;;;;;12.30;8.20;;;0.60;99.90;;;;;;5011950;28;20486;-59
2022/01/22 00:37:49;;;;;;;13.77;9.03;;;0.50;99.90;;;;;;5012397;28;20191;-58
2022/01/22 00:40:17;;;;;;;11.87;8.33;;;0.70;99.90;;;;;;5012233;28;20431;-57
2022/01/22 00:42:44;;;;;;;12.50;8.83;;;0.50;99.90;;;;;;5010626;28;20435;-58
2022/01/22 00:45:10;;;;;;;11.40;8.83;;;0.40;99.90;;;;;;5011995;28;21002;-58
2022/01/22 00:47:36;;;;;;;11.87;8.73;;;0.30;99.90;;;;;;5011912;28;20478;-58
2022/01/22 00:50:03;;;;;;;10.03;8.20;;;0.40;99.90;;;;;;5012271;28;20435;-55
2022/01/22 00:52:28;;;;;;;15.07;8.90;;;0.10;99.90;;;;;;5011979;28;20841;-60
2022/01/22 00:54:54;;;;;;;12.73;8.73;;;0.30;99.90;;;;;;5011900;28;20415;-58
2022/01/22 00:57:20;;;;;;;11.37;9.40;;;;;;;;;;5011855;28;20176;-58
2022/01/22 00:59:45;;;;;;;11.87;8.47;;;0.10;99.90;;;;;;5012150;28;20688;-59
2022/01/22 01:02:11;;;;;;;11.90;8.13;;;0.50;99.90;;;;;;5012049;28;20259;-58
2022/01/22 01:04:37;;;;;;;11.30;8.53;;;0.40;99.90;;;;;;5011747;28;20184;-57
2022/01/22 01:07:04;;;;;;;11.77;9.10;;;0.30;99.90;;;;;;5011997;28;20279;-57
2022/01/22 01:09:31;;;;;;;12.40;8.87;;;0.70;99.90;;;;;;5011829;28;20427;-59
2022/01/22 01:12:01;;;;;;;9.37;7.87;;;0.40;99.90;;;;;;5012404;28;20399;-59
2022/01/22 01:14:34;;;;;;;13.37;8.97;;;0.10;99.90;;;;;;5012085;28;20494;-57
2022/01/22 01:33:18;;;;;;;11.67;7.63;;;0.10;99.90;;;;;;5012240;28;20493;-56
2022/01/22 01:35:44;;;;;;;9.00;8.00;;;0.20;99.90;;;;;;5011354;28;20403;-57
2022/01/22 01:38:09;;;;;;;9.23;7.60;;;0.20;99.90;;;;;;5011782;28;20419;-60
2022/01/22 01:40:40;;;;;;;10.93;8.20;;;0.20;99.90;;;;;;5011417;28;20188;-58
2022/01/22 01:43:12;;;;;;;9.10;8.10;;;0.30;99.90;;;;;;5011895;28;20169;-58
2022/01/22 01:45:38;;;;;;;8.77;7.00;;;0.30;99.90;;;;;;5011228;28;20411;-61
2022/01/22 01:48:12;;;;;;;9.90;7.40;;;0.00;99.90;;;;;;5011644;28;20501;-56
2022/01/22 01:50:39;;;;;;;12.33;7.80;;;0.00;99.90;;;;;;5011636;28;20209;-58
2022/01/22 01:53:13;;;;;;;8.40;6.40;;;0.40;99.90;;;;;;5012311;28;20435;-61
2022/01/22 01:58:28;;;;;;;9.20;7.07;;;0.20;99.90;;;;;;5003966;28;20411;-56
2022/01/22 02:00:54;;;;;;;10.40;7.03;;;0.10;99.90;;;;;;5015249;28;20522;-59
2022/01/22 02:03:20;;;;;;;8.90;7.10;;;0.20;99.90;;;;;;5014998;28;20411;-58
2022/01/22 02:05:46;;;;;;;8.93;6.90;;;0.20;99.90;;;;;;5014989;28;20421;-59
2022/01/22 02:08:13;;;;;;;12.17;7.47;;;0.00;99.90;;;;;;5014807;28;20784;-60
2022/01/22 02:10:44;;;;;;;9.07;7.10;;;0.20;99.90;;;;;;5015138;28;20180;-58
2022/01/22 02:24:10;;;;;;;9.73;6.47;;;0.20;99.90;;;;;;5014634;28;20458;-56
2022/01/22 02:26:36;;;;;;;10.43;6.70;;;0.20;99.90;;;;;;5014486;28;20517;-58
2022/01/22 02:29:03;;;;;;;7.63;6.37;;;0.20;99.90;;;;;;5014533;28;20495;-58
2022/01/22 02:31:48;;;;;;;8.67;7.03;;;0.20;99.90;;;;;;5014679;28;20180;-58
2022/01/22 02:34:25;;;;;;;7.57;6.30;;;0.00;99.90;;;;;;5014539;28;20395;-61
2022/01/22 02:37:05;;;;;;;9.87;6.90;;;-0.10;99.90;;;;;;5014367;28;20407;-58
2022/01/22 02:42:32;;;;;;;9.07;6.23;;;0.30;99.90;;;;;;4992598;28;20527;-57
2022/01/22 02:44:57;;;;;;;8.23;6.90;;;0.00;99.90;;;;;;4992060;28;20416;-58
2022/01/22 02:47:23;;;;;;;8.80;6.77;;;0.30;99.90;;;;;;4992451;28;20459;-57
2022/01/22 02:49:49;;;;;;;8.50;7.33;;;0.30;99.90;;;;;;4992398;28;20590;-58
2022/01/22 02:52:17;;;;;;;7.73;6.30;;;0.00;99.90;;;;;;4992266;28;20216;-58
2022/01/22 02:54:44;;;;;;;9.17;7.10;;;0.20;99.90;;;;;;4992251;28;20357;-59
2022/01/22 02:57:11;;;;;;;8.87;6.73;;;0.20;99.90;;;;;;4992049;28;20418;-61
2022/01/22 02:59:37;;;;;;;8.53;6.57;;;0.40;99.90;;;;;;4992262;28;20440;-56
2022/01/22 03:02:04;;;;;;;8.40;6.13;;;0.40;99.90;;;;;;4992072;28;20421;-58
2022/01/22 03:04:30;;;;;;;8.47;6.57;;;0.40;99.90;;;;;;4992038;28;20424;-58
2022/01/22 03:06:56;;;;;;;8.73;6.90;;;0.50;99.90;;;;;;4991751;28;20496;-60
2022/01/22 03:09:28;;;;;;;8.23;6.77;;;0.20;99.90;;;;;;4992207;28;20448;-59
2022/01/22 03:15:24;;;;;;;8.43;6.47;;;0.50;99.90;;;;;;4991828;28;20921;-57
2022/01/22 03:22:32;;;;;;;6.77;6.00;;;0.40;99.90;;;;;;5013601;28;20420;-56
2022/01/22 03:27:42;;;;;;;8.83;5.90;;;;;;;;;;5013393;28;20473;-61
2022/01/22 03:30:08;;;;;;;7.93;6.90;;;0.10;99.90;;;;;;5013593;28;20525;-59
2022/01/22 03:32:40;;;;;;;7.10;6.40;;;0.20;99.90;;;;;;5013677;28;20172;-61
2022/01/22 03:35:44;;;;;;;8.27;6.30;;;0.60;99.90;;;;;;5013014;28;20491;-61
2022/01/22 03:37:58;;;;;;;9.23;7.00;;;0.40;99.90;;;;;;5012182;28;20454;-59
2022/01/22 03:40:26;;;;;;;8.73;6.47;;;0.40;99.90;;;;;;5013137;28;20439;-62
2022/01/22 03:42:53;;;;;;;8.23;7.30;;;0.10;99.90;;;;;;5013439;28;20176;-61
2022/01/22 03:45:21;;;;;;;8.40;6.97;;;0.70;99.90;;;;;;5012866;28;20415;-60
2022/01/22 03:47:47;;;;;;;7.83;6.83;;;0.50;99.90;;;;;;5013186;28;20804;-59
2022/01/22 03:50:16;;;;;;;8.47;7.03;;;0.50;99.90;;;;;;5012950;28;20435;-62
2022/01/22 03:52:42;;;;;;;8.87;7.10;;;;;;;;;;5013252;28;20633;-61
2022/01/22 03:55:13;;;;;;;8.03;7.10;;;0.50;99.90;;;;;;5012683;28;20416;-58
2022/01/22 03:57:39;;;;;;;8.30;7.00;;;;;;;;;;5013106;28;20255;-62
2022/01/22 04:00:07;;;;;;;9.37;7.80;;;0.40;99.90;;;;;;5012750;28;20887;-63
2022/01/22 04:05:17;;;;;;;9.83;7.77;;;;;;;;;;5012728;28;20418;-58
2022/01/22 04:10:20;;;;;;;8.33;7.03;;;;;;;;;;5013055;28;20777;-60
2022/01/22 04:12:57;;;;;;;9.73;7.77;;;0.50;99.90;;;;;;5012629;28;20487;-57
2022/01/22 04:15:26;;;;;;;9.37;8.30;;;0.70;99.90;;;;;;5012103;28;20438;-60
2022/01/22 04:26:53;;;;;;;9.03;7.87;;;0.40;99.90;;;;;;5012397;28;20414;-58
2022/01/22 04:28:56;;;;;;;10.07;7.80;;;0.50;99.90;;;;;;5011184;28;20486;-54
2022/01/22 04:31:22;;;;;;;9.43;7.87;;;0.60;99.90;;;;;;5012461;28;20427;-58
2022/01/22 04:33:48;;;;;;;9.07;7.80;;;;;;;;;;5012311;28;20974;-58
2022/01/22 04:36:14;;;;;;;9.10;7.87;;;0.40;99.90;;;;;;5010882;28;20427;-58
2022/01/22 04:38:39;;;;;;;10.93;8.53;;;0.80;99.90;;;;;;5012165;28;20252;-58
2022/01/22 04:41:05;;;;;;;11.67;9.60;;;0.40;99.90;;;;;;5012397;28;20691;-58
2022/01/22 04:43:33;;;;;;;12.20;9.33;;;0.40;99.90;;;;;;5012188;28;20252;-57
2022/01/22 04:46:25;;;;;;;9.50;8.37;;;0.40;99.90;;;;;;5011976;28;20178;-58
2022/01/22 04:49:05;;;;;;;11.33;9.23;;;0.70;99.90;;;;;;5012151;28;20462;-57
2022/01/22 04:56:59;;;;;;;10.87;9.73;;;0.70;99.90;;;;;;5012479;28;20406;-62
2022/01/22 04:59:25;;;;;;;11.07;9.67;;;;;;;;;;5011850;28;20900;-61
2022/01/22 05:01:51;;;;;;;10.57;9.00;;;0.40;99.90;;;;;;5012210;28;20223;-60
2022/01/22 05:04:16;;;;;;;11.43;9.33;;;0.70;99.90;;;;;;5012089;28;20190;-58
2022/01/22 05:06:42;;;;;;;10.93;9.30;;;0.70;99.90;;;;;;5011442;28;20739;-60
2022/01/22 05:09:08;;;;;;;13.20;10.40;;;;;;;;;;5012091;28;20700;-62
2022/01/22 05:11:33;;;;;;;11.00;9.80;;;0.70;99.90;;;;;;5011807;28;20259;-63
2022/01/22 05:13:59;;;;;;;11.73;10.40;;;0.50;99.90;;;;;;5012128;28;20176;-60
2022/01/22 05:16:25;;;;;;;12.13;9.87;;;0.60;99.90;;;;;;5011585;28;20172;-60
2022/01/22 05:18:59;;;;;;;12.40;10.50;;;0.70;99.90;;;;;;5012066;28;20211;-61
2022/01/22 05:21:27;;;;;;;13.37;10.63;;;0.50;99.90;;;;;;5011597;28;20207;-62
2022/01/22 05:23:55;;;;;;;13.43;10.97;;;;;;;;;;5012034;28;20419;-62
2022/01/22 05:36:58;;;;;;;12.67;10.40;;;0.60;99.90;;;;;;5015424;28;20502;-62
2022/01/22 05:39:25;;;;;;;14.60;11.07;;;0.60;99.90;;;;;;5015567;28;20783;-60
2022/01/22 05:41:51;;;;;;;12.57;10.90;;;0.80;99.90;;;;;;5015765;28;20815;-59
2022/01/22 05:44:17;;;;;;;13.43;11.30;;;0.80;99.90;;;;;;5015314;28;20450;-59
2022/01/22 05:46:43;;;;;;;11.97;10.13;;;0.80;99.90;;;;;;5015300;28;20482;-61
2022/01/22 05:49:09;;;;;;;12.80;11.13;;;0.80;99.90;;;;;;5015246;28;20177;-58
2022/01/22 05:51:38;;;;;;;10.77;9.67;;;0.80;99.90;;;;;;5015531;28;20177;-61
2022/01/22 05:59:37;;;;;;;14.40;11.10;;;;;;;;;;5015361;28;20954;-60
2022/01/22 06:02:07;;;;;;;14.50;11.60;;;0.80;99.90;;;;;;5015326;28;20406;-58
2022/01/22 06:04:33;;;;;;;12.83;11.13;;;;;;;;;;5014661;28;20438;-61
2022/01/22 06:06:59;;;;;;;12.73;10.90;;;1.00;99.90;;;;;;5015047;28;20442;-60
2022/01/22 06:09:26;;;;;;;12.03;10.73;;;;;;;;;;5014984;28;20630;-62
2022/01/22 06:12:14;;;;;;;12.87;10.23;;;;;;;;;;5015163;28;20203;-61
2022/01/22 06:14:40;;;;;;;11.20;10.07;;;;;;;;;;5014819;28;20426;-66
2022/01/22 06:17:06;;;;;;;11.70;10.30;;;;;;;;;;5014821;28;20419;-61
2022/01/22 06:19:31;;;;;;;11.93;9.43;;;1.20;99.90;;;;;;5014793;28;20251;-60
2022/01/22 06:24:25;;;;;;;11.90;10.60;;;;;;;;;;5032716;28;20223;-57
2022/01/22 06:26:51;;;;;;;11.93;10.17;;;0.70;99.90;;;;;;5033718;28;20457;-60
2022/01/22 06:29:17;;;;;;;11.33;10.13;;;1.00;99.90;;;;;;5034355;28;20258;-60
2022/01/22 06:31:43;;;;;;;12.97;11.00;;;1.10;99.90;;;;;;5034084;28;20540;-61
2022/01/22 06:34:09;;;;;;;12.33;10.23;;;1.10;99.90;;;;;;5016766;28;20179;-62
2022/01/22 06:36:35;;;;;;;12.07;10.70;;;;;;;;;;5033762;28;20179;-61
2022/01/22 06:39:13;;;;;;;12.87;10.47;;;1.10;99.90;;;;;;5033822;28;20417;-62
2022/01/22 06:41:46;;;;;;;10.73;9.63;;;0.70;99.90;;;;;;5034322;28;20284;-62
2022/01/22 06:44:17;;;;;;;11.40;10.20;;;0.90;99.90;;;;;;5034229;28;20900;-59
2022/01/22 06:46:45;;;;;;;12.07;10.70;;;1.10;99.90;;;;;;5033744;28;20501;-59
2022/01/22 06:49:10;;;;;;;11.83;10.60;;;0.90;99.90;;;;;;5034033;28;20403;-59
2022/01/22 06:51:36;;;;;;;12.93;10.40;;;0.80;99.90;;;;;;5034145;28;20545;-58
2022/01/22 06:54:03;;;;;;;12.17;10.37;;;1.10;99.90;;;;;;5034201;28;20203;-60
2022/01/22 06:56:30;;;;;;;12.50;11.20;;;1.20;99.90;;;;;;5033729;28;20191;-58
2022/01/22 06:58:57;;;;;;;11.00;9.60;;;1.10;99.90;;;;;;5033897;28;20446;-59
2022/01/22 07:01:23;;;;;;;12.53;11.20;;;0.90;99.90;;;;;;5033822;28;20477;-57
2022/01/22 07:03:49;;;;;;;11.60;10.33;;;1.40;99.90;;;;;;5033784;28;20464;-60
2022/01/22 07:06:15;;;;;;;11.00;9.90;;;;;;;;;;5033358;28;20215;-59
2022/01/22 07:08:41;;;;;;;11.93;10.30;;;;;;;;;;5015924;28;20245;-61
2022/01/22 07:11:07;;;;;;;11.87;10.50;;;;;;;;;;5033382;28;20553;-60
2022/01/22 07:13:33;;;;;;;11.47;10.20;;;1.30;99.90;;;;;;5015592;28;20433;-58
2022/01/22 07:15:59;;;;;;;11.57;10.37;;;1.10;99.90;;;;;;5033136;28;20497;-58
2022/01/22 07:18:25;;;;;;;13.90;11.50;;;1.10;99.90;;;;;;5015819;28;20426;-58
2022/01/22 07:20:52;;;;;;;11.60;10.30;;;1.40;99.90;;;;;;5033070;28;20878;-59
2022/01/22 07:23:54;;;;;;;11.90;10.57;;;;;;;;;;5033270;28;20199;-60
2022/01/22 07:26:08;;;;;;;12.37;10.70;;;0.90;99.90;;;;;;5032051;28;20421;-61
2022/01/22 07:28:33;;;;;;;11.93;10.63;;;1.20;99.90;;;;;;5015956;28;20410;-60
2022/01/22 07:31:03;;;;;;;12.20;10.87;;;1.00;99.90;;;;;;5033131;28;20422;-59
2022/01/22 07:33:29;;;;;;;11.60;10.10;;;1.10;99.90;;;;;;5032994;28;20199;-60
2022/01/22 07:35:55;;;;;;;13.77;10.90;;;1.20;99.90;;;;;;5032968;28;20415;-60
2022/01/22 07:38:21;;;;;;;12.90;10.53;;;1.10;99.90;;;;;;5032954;28;20171;-59
2022/01/22 07:40:47;;;;;;;12.07;10.67;;;;;;;;;;5032991;28;20584;-61
2022/01/22 07:43:14;;;;;;;13.07;11.27;;;1.40;99.90;;;;;;5032720;28;20410;-60
2022/01/22 07:45:40;;;;;;;13.07;11.53;;;1.60;99.90;;;;;;5031747;28;20180;-59
2022/01/22 07:48:06;;;;;;;13.27;11.60;;;1.30;99.90;;;;;;5031750;28;20496;-59
2022/01/22 07:50:32;;;;;;;13.53;11.30;;;;;;;;;;5031367;28;20430;-61
2022/01/22 07:52:57;;;;;;;15.83;13.07;;;1.30;99.90;;;;;;5032115;28;20178;-59
2022/01/22 07:55:23;;;;;;;12.67;11.00;;;1.30;99.90;;;;;;5031892;28;20584;-59
2022/01/22 07:57:49;;;;;;;13.40;12.00;;;;;;;;;;5032084;28;20674;-60
2022/01/22 08:00:16;;;;;;;13.13;11.67;;;;;;;;;;5031943;28;20517;-59
2022/01/22 08:02:43;;;;;;;11.93;10.67;;;;;;;;;;5032142;28;20175;-61
2022/01/22 08:05:09;;;;;;;13.50;11.37;;;;;;;;;;5031162;28;20406;-61
2022/01/22 08:07:35;;;;;;;12.80;10.97;;;;;;;;;;5032228;28;20874;-58
2022/01/22 08:10:02;;;;;;;13.13;11.30;;;;;;;;;;5031930;28;20176;-60
2022/01/22 08:12:28;;;;;;;13.20;10.83;;;1.50;99.90;;;;;;5032401;28;20187;-60
2022/01/22 08:14:54;;;;;;;12.07;10.73;;;;;;;;;;5014082;28;20422;-58
2022/01/22 08:17:20;;;;;;;11.90;10.70;;;;;;;;;;5032220;28;20175;-59
2022/01/22 08:19:46;;;;;;;12.10;10.80;;;1.40;99.90;;;;;;5032303;28;20180;-60
2022/01/22 08:22:12;;;;;;;11.03;9.77;;;1.80;99.90;;;;;;5014235;28;20206;-59
2022/01/22 08:24:38;;;;;;;11.10;9.97;;;;;;;;;;5032211;28;20215;-59
2022/01/22 08:29:53;;;;;;;11.20;9.97;;;1.40;99.90;;;;;;5003454;28;20238;-59
2022/01/22 08:37:53;;;;;;;11.50;10.00;;;1.70;99.90;;;;;;4926888;29;20442;-57
2022/01/22 08:40:19;;;;;;;11.50;9.73;;;1.50;99.90;;;;;;4932155;29;20881;-60
2022/01/22 08:42:49;;;;;;;13.40;10.83;;;1.80;99.90;;;;;;4949562;29;20190;-59
2022/01/22 08:45:14;;;;;;;10.50;9.40;;;1.80;99.90;;;;;;4950713;29;20533;-55
2022/01/22 08:47:40;;;;;;;9.97;8.97;;;1.80;99.90;;;;;;4950761;29;20289;-57
2022/01/22 08:50:06;;;;;;;11.13;9.73;;;1.40;99.90;;;;;;4950056;29;20182;-57
2022/01/22 08:52:35;;;;;;;10.23;9.13;;;1.60;99.90;;;;;;4949220;29;20241;-54
2022/01/22 08:55:02;;;;;;;10.73;9.43;;;1.60;99.90;;;;;;4949929;29;20815;-58
2022/01/22 08:57:27;;;;;;;10.03;8.77;;;1.70;99.90;;;;;;4951186;29;20193;-60
2022/01/22 08:59:53;;;;;;;11.00;9.80;;;1.70;99.90;;;;;;4951448;29;20194;-59
2022/01/22 09:02:19;;;;;;;10.37;9.30;;;1.70;99.90;;;;;;4950079;28;20210;-57
2022/01/22 09:04:45;;;;;;;10.43;9.30;;;1.70;99.90;;;;;;4950706;29;20732;-54
2022/01/22 09:07:11;;;;;;;10.53;9.43;;;1.70;99.90;;;;;;4947359;29;20218;-55
2022/01/22 09:09:37;;;;;;;10.40;9.30;;;1.80;99.90;;;;;;4951212;29;20261;-60
2022/01/22 09:12:06;;;;;;;10.67;9.57;;;1.60;99.90;;;;;;4983504;28;20270;-54
2022/01/22 09:14:32;;;;;;;11.47;9.93;;;1.80;99.90;;;;;;5030040;28;20222;-59
2022/01/22 09:16:58;;;;;;;11.30;10.10;;;1.90;99.90;;;;;;5031223;28;20188;-56
2022/01/22 09:19:32;;;;;;;11.03;9.70;;;1.90;99.90;;;;;;5030958;28;20183;-57
2022/01/22 09:21:57;;;;;;;11.90;9.70;;;1.90;99.90;;;;;;5031292;28;20199;-57
2022/01/22 09:24:23;;;;;;;10.10;9.00;;;1.90;99.90;;;;;;5030250;28;20188;-59
2022/01/22 09:26:49;;;;;;;10.23;9.17;;;1.90;99.90;;;;;;5030604;28;20269;-58
2022/01/22 09:29:15;;;;;;;12.13;10.13;;;2.00;99.90;;;;;;5031369;28;20163;-57
2022/01/22 09:31:42;;;;;;;10.27;9.00;;;2.10;99.90;;;;;;5030823;28;20184;-62
2022/01/22 09:34:09;;;;;;;11.20;9.90;;;2.10;99.90;;;;;;5030389;28;20182;-58
2022/01/22 09:36:35;;;;;;;11.50;10.20;;;2.10;99.90;;;;;;5026988;28;20633;-58
2022/01/22 09:39:02;;;;;;;12.03;10.30;;;2.20;99.90;;;;;;5029227;28;20169;-59
2022/01/22 09:41:28;;;;;;;11.20;10.10;;;2.10;99.90;;;;;;5029986;28;20199;-58
2022/01/22 09:43:54;;;;;;;10.43;9.33;;;2.10;99.90;;;;;;5030911;28;20656;-60
2022/01/22 09:46:21;;;;;;;10.50;9.40;;;2.10;99.90;;;;;;5035935;28;20192;-59
2022/01/22 09:48:48;;;;;;;10.70;9.60;;;2.10;99.90;;;;;;5031113;28;20168;-57
2022/01/22 09:51:14;;;;;;;10.03;8.80;;;2.00;99.90;;;;;;5031251;28;20203;-54
2022/01/22 09:53:40;;;;;;;10.73;8.97;;;2.00;99.90;;;;;;5031092;28;20176;-52
2022/01/22 09:56:06;;;;;;;10.93;9.37;;;2.10;99.90;;;;;;5030729;28;20634;-55
2022/01/22 09:58:32;;;;;;;10.63;9.53;;;2.10;99.90;;;;;;5032289;28;20222;-56
2022/01/22 10:01:25;;;;;;;11.77;10.37;;;2.10;99.90;;;;;;5044993;28;20189;-54
2022/01/22 10:03:52;;;;;;;11.60;9.27;;;2.20;99.90;;;;;;5044754;28;20176;-53
2022/01/22 10:06:22;;;;;;;10.77;9.47;;;2.20;99.90;;;;;;5030153;28;20168;-55
2022/01/22 10:08:49;;;;;;;9.90;8.90;;;2.20;99.90;;;;;;5031207;28;20715;-53
2022/01/22 10:11:23;;;;;;;7.23;6.53;;;2.40;99.90;;;;;;5030704;28;20184;-56
2022/01/22 10:13:52;;;;;;;7.73;6.77;;;3.10;99.90;;;;;;5027972;28;20238;-57
2022/01/22 10:16:38;;;;;;;8.03;7.23;;;3.40;99.90;;;;;;5033299;28;20648;-55
2022/01/22 10:19:24;;;;;;;8.53;6.67;;;3.50;99.90;;;;;;5014275;28;20176;-53
2022/01/22 10:22:00;;;;;;;7.07;6.37;;;3.40;99.90;;;;;;5013452;28;20199;-56
2022/01/22 10:30:06;;;;;;;7.37;6.63;;;2.90;99.90;;;;;;5032960;28;20176;-49
2022/01/22 10:35:18;;;;;;;8.77;7.87;;;2.80;99.90;;;;;;5033696;28;20167;-53
2022/01/22 10:37:45;;;;;;;9.37;8.37;;;2.70;99.90;;;;;;5034316;28;20226;-54
2022/01/22 10:40:23;;;;;;;8.67;7.77;;;2.80;99.90;;;;;;5033788;28;20283;-55
2022/01/22 10:42:50;;;;;;;9.80;8.57;;;2.90;99.90;;;;;;5034223;28;20233;-56
2022/01/22 10:45:24;;;;;;;8.17;7.30;;;2.90;99.90;;;;;;5033670;28;20176;-55
2022/01/22 10:48:10;;;;;;;8.97;7.33;;;3.00;99.90;;;;;;5034068;28;20200;-54
2022/01/22 10:50:36;;;;;;;9.60;7.13;;;3.00;99.90;;;;;;5033804;28;20191;-52
2022/01/22 10:53:01;;;;;;;8.20;7.40;;;3.00;99.90;;;;;;5033761;28;20310;-55
2022/01/22 10:55:27;;;;;;;8.73;7.83;;;2.80;99.90;;;;;;5033652;28;20179;-58
2022/01/22 10:58:09;;;;;;;8.40;7.60;;;2.80;99.90;;;;;;5033471;28;20175;-53
2022/01/22 11:00:35;;;;;;;7.97;7.10;;;2.90;99.90;;;;;;5033868;28;20326;-53
2022/01/22 11:03:21;;;;;;;8.20;7.40;;;3.00;99.90;;;;;;5033449;28;20175;-53
2022/01/22 11:05:47;;;;;;;8.50;7.70;;;3.00;99.90;;;;;;5033617;28;20171;-54
2022/01/22 11:08:14;;;;;;;9.57;7.83;;;2.90;99.90;;;;;;5033587;28;20561;-53
2022/01/22 11:10:40;;;;;;;8.70;7.17;;;2.80;99.90;;;;;;5033591;28;20538;-56
2022/01/22 11:13:06;;;;;;;8.67;7.77;;;2.70;99.90;;;;;;5033342;28;20178;-53
2022/01/22 11:15:34;;;;;;;7.93;7.13;;;2.80;99.90;;;;;;5033241;28;20171;-54
2022/01/22 11:18:01;;;;;;;8.87;7.90;;;2.80;99.90;;;;;;5033525;28;20168;-53
2022/01/22 11:20:27;;;;;;;9.87;8.10;;;2.80;99.90;;;;;;5033269;28;20223;-51
2022/01/22 11:22:53;;;;;;;9.17;8.27;;;2.70;99.90;;;;;;5033623;28;20184;-53
2022/01/22 11:25:20;;;;;;;7.60;6.80;;;2.60;99.90;;;;;;5033144;28;20192;-56
2022/01/22 11:27:47;;;;;;;9.30;7.80;;;2.60;99.90;;;;;;5033363;28;20238;-54
2022/01/22 11:30:16;;;;;;;9.17;7.80;;;2.50;99.90;;;;;;5033085;28;20285;-54
2022/01/22 11:32:54;;;;;;;8.43;7.33;;;2.40;99.90;;;;;;5015737;28;20222;-52
2022/01/22 11:35:22;;;;;;;9.80;8.50;;;2.40;99.90;;;;;;5032828;28;20255;-52
2022/01/22 11:38:05;;;;;;;11.93;10.20;;;2.50;99.90;;;;;;5033203;28;20179;-52
2022/01/22 11:40:33;;;;;;;8.00;7.17;;;2.60;99.90;;;;;;5032989;28;20195;-51
2022/01/22 11:43:13;;;;;;;8.60;7.70;;;2.50;99.90;;;;;;5032894;28;20230;-56
2022/01/22 11:45:41;;;;;;;8.43;7.43;;;2.50;99.90;;;;;;5032845;28;20544;-55
2022/01/22 11:48:17;;;;;;;7.90;7.10;;;2.40;99.90;;;;;;5032654;28;20195;-54
2022/01/22 11:50:45;;;;;;;8.57;7.40;;;2.40;99.90;;;;;;5032387;28;20221;-57
2022/01/22 11:53:34;;;;;;;9.90;7.53;;;2.40;99.90;;;;;;5031120;28;20224;-57
2022/01/22 11:56:09;;;;;;;8.03;7.23;;;2.40;99.90;;;;;;5029781;28;20175;-55
2022/01/22 11:59:00;;;;;;;8.33;6.83;;;2.40;99.90;;;;;;5029835;28;20167;-52
2022/01/22 12:01:37;;;;;;;8.33;7.43;;;2.50;99.90;;;;;;5023377;28;20926;-53
2022/01/22 12:04:04;;;;;;;8.60;7.67;;;2.40;99.90;;;;;;5025616;28;20194;-59
2022/01/22 12:06:30;;;;;;;8.00;7.20;;;2.50;99.90;;;;;;5025230;28;20199;-55
2022/01/22 12:09:25;;;;;;;7.83;7.03;;;2.60;99.90;;;;;;5012235;28;20603;-51
2022/01/22 12:14:47;;;;;;;7.87;7.07;;;2.60;99.90;;;;;;4958353;28;20230;-54
2022/01/22 12:17:19;;;;;;;8.27;7.37;;;2.60;99.90;;;;;;4960237;28;20178;-56
2022/01/22 12:20:17;;;;;;;8.30;7.50;;;2.60;99.90;;;;;;4960369;28;20758;-52
2022/01/22 12:22:34;;;;;;;7.63;6.83;;;2.60;99.90;;;;;;4958911;28;20193;-52
2022/01/22 12:25:22;;;;;;;8.73;7.67;;;2.60;99.90;;;;;;4959575;28;20193;-54
2022/01/22 12:27:50;;;;;;;8.10;7.30;;;2.60;99.90;;;;;;4932386;28;20213;-54
2022/01/22 12:30:31;;;;;;;7.87;7.07;;;2.50;99.90;;;;;;4957766;28;20249;-54
2022/01/22 12:32:58;;;;;;;9.20;7.77;;;2.50;99.90;;;;;;4958575;28;20614;-52
2022/01/22 12:35:37;;;;;;;8.90;8.00;;;2.40;99.90;;;;;;4959575;28;20859;-55
2022/01/22 12:38:45;;;;;;;8.30;7.50;;;2.40;99.90;;;;;;4955305;28;20318;-53
2022/01/22 12:44:11;;;;;;;8.07;7.27;;;2.40;99.90;;;;;;4960831;28;20186;-52
2022/01/22 12:46:38;;;;;;;9.33;7.60;;;2.50;99.90;;;;;;4960001;28;20716;-50
2022/01/22 12:49:05;;;;;;;8.07;7.27;;;2.60;99.90;;;;;;4962524;28;20289;-49
2022/01/22 12:51:32;;;;;;;7.90;7.10;;;2.80;99.90;;;;;;5004530;28;20211;-53
2022/01/22 12:53:57;;;;;;;8.63;7.33;;;2.80;99.90;;;;;;5031376;28;20176;-52
2022/01/22 12:59:08;;;;;;;9.30;8.40;;;2.70;99.90;;;;;;5031399;28;20830;-51
2022/01/22 13:01:37;;;;;;;10.87;9.10;;;2.50;99.90;;;;;;5031455;28;20256;-50
2022/01/22 13:04:06;;;;;;;9.87;8.57;;;2.40;99.90;;;;;;5031126;28;20167;-51
2022/01/22 13:06:49;;;;;;;11.43;9.77;;;2.30;99.90;;;;;;5030689;28;20191;-53
2022/01/22 13:09:15;;;;;;;11.13;9.33;;;2.30;99.90;;;;;;5029550;28;20179;-51
2022/01/22 13:11:46;;;;;;;11.40;10.20;;;2.30;99.90;;;;;;5031225;28;20572;-50
2022/01/22 13:14:15;;;;;;;10.07;9.07;;;2.30;99.90;;;;;;5030382;28;20176;-52
2022/01/22 13:16:48;;;;;;;11.47;10.33;;;2.20;99.90;;;;;;5030583;28;20230;-52
2022/01/22 13:19:15;;;;;;;11.40;10.30;;;2.20;99.90;;;;;;5030644;28;20175;-51
2022/01/22 13:21:51;;;;;;;11.57;10.37;;;2.20;99.90;;;;;;5012961;28;20204;-52
2022/01/22 13:24:25;;;;;;;12.97;10.07;;;2.30;99.90;;;;;;5029893;28;20189;-52
2022/01/22 13:27:11;;;;;;;10.47;9.43;;;2.30;99.90;;;;;;5028300;28;20647;-49
2022/01/22 13:29:42;;;;;;;10.80;9.70;;;2.40;99.90;;;;;;5030006;28;20703;-53
2022/01/22 13:32:20;;;;;;;10.23;9.17;;;2.60;99.90;;;;;;5028422;28;20664;-51
2022/01/22 13:37:55;;;;;;;11.07;9.87;;;2.50;99.90;;;;;;5030326;28;20179;-54
2022/01/22 13:48:57;;;;;;;11.10;10.00;;;2.50;99.90;;;;;;5030198;28;20201;-49
2022/01/22 13:51:25;;;;;;;12.63;10.37;;;2.50;99.90;;;;;;5033862;28;20287;-55
2022/01/22 13:53:51;;;;;;;9.87;8.87;;;2.60;99.90;;;;;;5014327;28;20183;-53
2022/01/22 13:56:18;;;;;;;12.30;11.03;;;2.70;99.90;;;;;;5034031;28;20171;-53
2022/01/22 13:58:43;;;;;;;12.33;11.07;;;2.70;99.90;;;;;;5035316;28;20175;-51
2022/01/22 14:01:18;;;;;;;10.13;9.10;;;2.80;99.90;;;;;;5034083;28;20204;-52
2022/01/22 14:03:45;;;;;;;9.50;8.50;;;2.80;99.90;;;;;;5032952;28;20202;-51
2022/01/22 14:06:11;;;;;;;9.47;8.57;;;2.80;99.90;;;;;;5033479;28;20180;-53
2022/01/22 14:08:37;;;;;;;9.20;8.30;;;2.70;99.90;;;;;;5014055;28;20202;-56
2022/01/22 14:11:08;;;;;;;8.77;7.87;;;2.70;99.90;;;;;;5033227;28;20688;-56
2022/01/22 14:13:35;;;;;;;9.37;8.37;;;2.70;99.90;;;;;;5033428;28;20203;-52
2022/01/22 14:16:21;;;;;;;10.73;9.53;;;2.60;99.90;;;;;;5033025;28;20172;-50
2022/01/22 14:18:48;;;;;;;12.03;10.70;;;2.50;99.90;;;;;;5031193;28;20172;-61
2022/01/22 14:21:19;;;;;;;11.07;9.60;;;2.50;99.90;;;;;;5033401;28;20203;-54
2022/01/22 14:23:46;;;;;;;10.87;9.70;;;2.40;99.90;;;;;;5033677;28;20532;-51
2022/01/22 14:26:13;;;;;;;10.47;9.37;;;2.40;99.90;;;;;;5016066;28;20708;-51
2022/01/22 14:28:43;;;;;;;10.03;9.03;;;2.40;99.90;;;;;;5032384;28;20238;-54
2022/01/22 14:31:19;;;;;;;10.83;9.73;;;2.40;99.90;;;;;;5033804;28;20609;-50
2022/01/22 14:33:44;;;;;;;11.70;10.50;;;2.40;99.90;;;;;;5032593;28;20199;-54
2022/01/22 14:36:15;;;;;;;10.53;9.53;;;2.40;99.90;;;;;;5032779;28;20212;-53
2022/01/22 14:38:45;;;;;;;10.50;9.47;;;2.50;99.90;;;;;;5033959;28;20178;-53
2022/01/22 14:44:21;;;;;;;11.73;10.53;;;2.50;99.90;;;;;;5033405;28;20187;-53
2022/01/22 14:46:52;;;;;;;11.63;10.40;;;2.40;99.90;;;;;;5032641;28;20284;-57
2022/01/22 14:49:33;;;;;;;11.50;10.27;;;2.50;99.90;;;;;;5033990;28;20175;-54
2022/01/22 14:51:59;;;;;;;13.13;11.73;;;2.50;99.90;;;;;;5028761;28;20211;-53
2022/01/22 14:54:27;;;;;;;12.50;11.20;;;2.60;99.90;;;;;;5033647;28;20172;-48
2022/01/22 14:56:53;;;;;;;12.27;10.97;;;2.60;99.90;;;;;;5030875;28;20172;-53
2022/01/22 14:59:19;;;;;;;13.50;12.10;;;2.60;99.90;;;;;;5033946;28;20237;-50
2022/01/22 15:01:45;;;;;;;13.50;12.10;;;2.60;99.90;;;;;;5033282;28;20690;-50
2022/01/22 15:04:11;;;;;;;14.47;12.97;;;2.50;99.90;;;;;;5033679;28;20172;-55
2022/01/22 15:06:36;;;;;;;14.27;12.77;;;2.40;99.90;;;;;;5015809;28;20249;-57
2022/01/22 15:09:04;;;;;;;14.03;12.17;;;2.40;99.90;;;;;;5033315;28;20168;-52